createdAt,value
2022-12-29T00:01:53.775Z,100.00
2022-12-29T00:04:24.325Z,100.00
2022-12-29T00:06:54.842Z,100.00
2022-12-29T00:09:25.490Z,100.00
2022-12-29T00:11:55.938Z,100.00
2022-12-29T00:14:26.520Z,100.00
2022-12-29T00:16:57.065Z,100.00
2022-12-29T00:19:27.685Z,100.00
2022-12-29T00:21:58.150Z,100.00
2022-12-29T00:24:28.737Z,100.00
2022-12-29T00:26:59.245Z,100.00
2022-12-29T00:29:29.893Z,100.00
2022-12-29T00:32:00.363Z,100.00
2022-12-29T00:34:30.926Z,100.00
2022-12-29T00:37:01.445Z,100.00
2022-12-29T00:39:32.008Z,100.00
2022-12-29T00:42:02.473Z,100.00
2022-12-29T00:44:33.068Z,100.00
2022-12-29T00:47:03.622Z,100.00
2022-12-29T00:49:34.398Z,100.00
2022-12-29T00:52:04.638Z,100.00
2022-12-29T00:54:35.203Z,100.00
2022-12-29T00:57:05.735Z,100.00
2022-12-29T00:59:36.297Z,100.00
2022-12-29T01:02:06.975Z,100.00
2022-12-29T01:04:37.399Z,100.00
2022-12-29T01:07:07.900Z,100.00
2022-12-29T01:09:38.558Z,100.00
2022-12-29T01:12:08.991Z,100.00
2022-12-29T01:14:39.548Z,100.00
2022-12-29T01:17:10.074Z,100.00
2022-12-29T01:19:40.674Z,100.00
2022-12-29T01:22:11.123Z,100.00
2022-12-29T01:24:41.673Z,100.00
2022-12-29T01:27:12.188Z,100.00
2022-12-29T01:29:42.793Z,100.00
2022-12-29T01:32:13.232Z,100.00
2022-12-29T01:34:43.856Z,100.00
2022-12-29T01:37:14.274Z,100.00
2022-12-29T01:39:44.808Z,100.00
2022-12-29T01:42:15.319Z,100.00
2022-12-29T01:44:45.850Z,100.00
2022-12-29T01:47:16.351Z,100.00
2022-12-29T01:49:46.886Z,100.00
2022-12-29T01:52:17.392Z,100.00
2022-12-29T01:54:47.913Z,100.00
2022-12-29T01:57:18.416Z,100.00
2022-12-29T01:59:48.919Z,100.00
2022-12-29T02:02:19.501Z,100.00
2022-12-29T02:04:50.098Z,100.00
2022-12-29T02:07:20.489Z,100.00
2022-12-29T02:09:51.069Z,100.00
2022-12-29T02:12:21.487Z,100.00
2022-12-29T02:14:52.016Z,100.00
2022-12-29T02:17:22.510Z,100.00
2022-12-29T02:19:53.072Z,100.00
2022-12-29T02:22:23.595Z,100.00
2022-12-29T02:24:54.062Z,100.00
2022-12-29T02:27:24.573Z,100.00
2022-12-29T02:29:55.097Z,100.00
2022-12-29T02:32:25.640Z,100.00
2022-12-29T02:34:56.143Z,100.00
2022-12-29T02:37:26.645Z,100.00
2022-12-29T02:39:57.174Z,100.00
2022-12-29T02:42:27.672Z,100.00
2022-12-29T02:44:58.206Z,100.00
2022-12-29T02:47:28.718Z,100.00
2022-12-29T02:49:59.328Z,100.00
2022-12-29T02:52:29.758Z,100.00
2022-12-29T02:55:00.279Z,100.00
2022-12-29T02:57:30.818Z,100.00
2022-12-29T03:00:01.304Z,100.00
2022-12-29T03:02:32.147Z,100.00
2022-12-29T03:05:02.384Z,100.00
2022-12-29T03:07:32.859Z,100.00
2022-12-29T03:10:03.394Z,100.00
2022-12-29T03:12:33.989Z,100.00
2022-12-29T03:15:04.441Z,100.00
2022-12-29T03:17:34.944Z,100.00
2022-12-29T03:20:05.474Z,100.00
2022-12-29T03:22:36.001Z,100.00
2022-12-29T03:25:06.515Z,100.00
2022-12-29T03:27:37.032Z,100.00
2022-12-29T03:30:07.563Z,100.00
2022-12-29T03:32:38.074Z,100.00
2022-12-29T03:35:08.615Z,100.00
2022-12-29T03:37:39.117Z,100.00
2022-12-29T03:40:09.707Z,100.00
2022-12-29T03:42:40.178Z,100.00
2022-12-29T03:45:10.720Z,100.00
2022-12-29T03:47:41.228Z,100.00
2022-12-29T03:50:11.762Z,100.00
2022-12-29T03:52:42.295Z,100.00
2022-12-29T03:55:12.897Z,100.00
2022-12-29T03:57:43.393Z,100.00
2022-12-29T04:00:13.951Z,100.00
2022-12-29T04:02:44.711Z,100.00
2022-12-29T04:05:15.011Z,100.00
2022-12-29T04:07:45.533Z,100.00
2022-12-29T04:10:16.168Z,100.00
2022-12-29T04:12:46.599Z,100.00
2022-12-29T04:15:17.249Z,100.00
2022-12-29T04:17:47.689Z,100.00
2022-12-29T04:20:18.236Z,100.00
2022-12-29T04:22:48.765Z,100.00
2022-12-29T04:25:19.356Z,100.00
2022-12-29T04:27:49.835Z,100.00
2022-12-29T04:30:20.379Z,100.00
2022-12-29T04:32:50.916Z,100.00
2022-12-29T04:35:21.457Z,100.00
2022-12-29T04:37:51.987Z,100.00
2022-12-29T04:40:22.558Z,100.00
2022-12-29T04:42:53.095Z,100.00
2022-12-29T04:45:23.645Z,100.00
2022-12-29T04:47:54.180Z,100.00
2022-12-29T04:50:24.739Z,100.00
2022-12-29T04:52:55.284Z,100.00
2022-12-29T04:55:25.968Z,100.00
2022-12-29T04:57:56.375Z,100.00
2022-12-29T05:00:26.928Z,100.00
2022-12-29T05:02:57.653Z,100.00
2022-12-29T05:05:28.118Z,100.00
2022-12-29T05:07:58.532Z,100.00
2022-12-29T05:10:29.096Z,100.00
2022-12-29T05:12:59.626Z,100.00
2022-12-29T05:15:30.245Z,100.00
2022-12-29T05:18:00.711Z,100.00
2022-12-29T05:20:31.357Z,100.00
2022-12-29T05:23:01.802Z,100.00
2022-12-29T05:25:32.364Z,100.00
2022-12-29T05:28:02.866Z,100.00
2022-12-29T05:30:33.544Z,100.00
2022-12-29T05:33:03.964Z,100.00
2022-12-29T05:35:34.587Z,100.00
2022-12-29T05:38:05.049Z,100.00
2022-12-29T05:40:35.671Z,100.00
2022-12-29T05:43:06.139Z,100.00
2022-12-29T05:45:36.691Z,100.00
2022-12-29T05:48:07.250Z,100.00
2022-12-29T05:50:37.797Z,100.00
2022-12-29T05:53:08.313Z,100.00
2022-12-29T05:55:43.422Z,100.00
2022-12-29T05:58:09.416Z,100.00
2022-12-29T06:00:39.956Z,100.00
2022-12-29T06:03:10.688Z,100.00
2022-12-29T06:05:41.043Z,100.00
2022-12-29T06:08:11.666Z,100.00
2022-12-29T06:10:42.151Z,100.00
2022-12-29T06:13:12.716Z,100.00
2022-12-29T06:15:43.261Z,100.00
2022-12-29T06:18:17.928Z,100.00
2022-12-29T06:20:44.409Z,100.00
2022-12-29T06:23:14.936Z,100.00
2022-12-29T06:25:45.479Z,100.00
2022-12-29T06:28:16.101Z,100.00
2022-12-29T06:30:46.629Z,100.00
2022-12-29T06:33:17.169Z,100.00
2022-12-29T06:35:47.745Z,100.00
2022-12-29T06:38:18.288Z,100.00
2022-12-29T06:40:48.860Z,100.00
2022-12-29T06:43:19.493Z,100.00
2022-12-29T06:45:50.028Z,100.00
2022-12-29T06:48:20.558Z,100.00
2022-12-29T06:50:51.127Z,100.00
2022-12-29T06:53:21.688Z,100.00
2022-12-29T06:55:52.296Z,100.00
2022-12-29T06:58:22.882Z,98.31
2022-12-29T07:00:53.474Z,99.48
2022-12-29T07:03:24.028Z,98.96
2022-12-29T07:05:54.559Z,98.19
2022-12-29T07:08:25.124Z,98.38
2022-12-29T07:10:55.709Z,99.16
2022-12-29T07:13:26.287Z,98.76
2022-12-29T07:15:56.872Z,97.38
2022-12-29T07:18:27.452Z,98.42
2022-12-29T07:20:58.049Z,97.70
2022-12-29T07:23:28.595Z,98.18
2022-12-29T07:25:59.309Z,99.36
2022-12-29T07:28:29.764Z,99.27
2022-12-29T07:31:00.373Z,99.39
2022-12-29T07:33:31.008Z,100.00
2022-12-29T07:36:01.518Z,100.00
2022-12-29T07:38:32.105Z,99.40
2022-12-29T07:41:02.701Z,100.00
2022-12-29T07:43:33.259Z,100.00
2022-12-29T07:46:03.999Z,100.00
2022-12-29T07:48:34.452Z,99.50
2022-12-29T07:51:05.029Z,100.00
2022-12-29T07:53:35.611Z,100.00
2022-12-29T07:56:06.214Z,100.00
2022-12-29T07:58:36.784Z,100.00
2022-12-29T08:01:07.437Z,100.00
2022-12-29T08:03:38.032Z,100.00
2022-12-29T08:06:08.595Z,100.00
2022-12-29T08:08:39.293Z,100.00
2022-12-29T08:11:09.758Z,100.00
2022-12-29T08:13:40.343Z,100.00
2022-12-29T08:16:10.999Z,100.00
2022-12-29T08:18:41.505Z,100.00
2022-12-29T08:21:12.116Z,99.61
2022-12-29T08:23:42.708Z,98.43
2022-12-29T08:26:13.313Z,99.64
2022-12-29T08:28:43.902Z,100.00
2022-12-29T08:31:14.362Z,100.00
2022-12-29T08:33:44.783Z,100.00
2022-12-29T08:36:15.372Z,100.00
2022-12-29T08:38:45.957Z,99.29
2022-12-29T08:41:16.551Z,99.22
2022-12-29T08:43:47.133Z,99.90
2022-12-29T08:46:17.853Z,100.00
2022-12-29T08:48:48.424Z,100.00
2022-12-29T08:51:22.933Z,100.00
2022-12-29T08:53:49.482Z,100.00
2022-12-29T08:56:20.220Z,100.00
2022-12-29T08:58:50.676Z,100.00
2022-12-29T09:01:21.476Z,99.07
2022-12-29T09:04:14.260Z,100.00
2022-12-29T09:06:22.463Z,99.58
2022-12-29T09:08:53.047Z,98.28
2022-12-29T09:11:23.689Z,100.00
2022-12-29T09:13:54.248Z,99.24
2022-12-29T09:16:24.899Z,99.22
2022-12-29T09:18:55.429Z,99.69
2022-12-29T09:21:26.044Z,100.00
2022-12-29T09:23:56.627Z,100.00
2022-12-29T09:26:27.240Z,100.00
2022-12-29T09:28:57.887Z,100.00
2022-12-29T09:31:28.520Z,99.96
2022-12-29T09:33:59.034Z,99.96
2022-12-29T09:36:29.719Z,100.00
2022-12-29T09:39:00.243Z,100.00
2022-12-29T09:41:30.850Z,100.00
2022-12-29T09:44:01.441Z,100.00
2022-12-29T09:46:32.092Z,100.00
2022-12-29T09:49:02.638Z,100.00
2022-12-29T09:51:33.245Z,100.00
2022-12-29T09:54:03.844Z,100.00
2022-12-29T09:56:34.421Z,100.00
2022-12-29T09:59:05.092Z,100.00
2022-12-29T10:01:35.783Z,99.34
2022-12-29T10:04:06.199Z,99.81
2022-12-29T10:06:56.245Z,99.21
2022-12-29T10:09:07.392Z,99.44
2022-12-29T10:11:38.030Z,98.84
2022-12-29T10:14:13.727Z,99.21
2022-12-29T10:16:39.127Z,98.56
2022-12-29T10:19:09.704Z,98.41
2022-12-29T10:21:40.264Z,98.59
2022-12-29T10:24:10.847Z,96.79
2022-12-29T10:26:41.446Z,97.12
2022-12-29T10:29:12.006Z,97.01
2022-12-29T10:31:42.664Z,98.43
2022-12-29T10:34:13.213Z,96.73
2022-12-29T10:36:43.855Z,96.45
2022-12-29T10:39:14.364Z,98.37
2022-12-29T10:41:44.959Z,96.77
2022-12-29T10:44:15.533Z,98.82
2022-12-29T10:46:46.145Z,97.75
2022-12-29T10:49:21.280Z,97.58
2022-12-29T10:51:47.283Z,98.26
2022-12-29T10:54:17.857Z,97.10
2022-12-29T10:56:48.468Z,96.35
2022-12-29T10:59:19.018Z,97.45
2022-12-29T11:01:49.844Z,96.08
2022-12-29T11:04:20.138Z,95.69
2022-12-29T11:06:50.721Z,95.46
2022-12-29T11:09:21.272Z,96.60
2022-12-29T11:11:51.851Z,95.40
2022-12-29T11:14:22.400Z,96.75
2022-12-29T11:16:53.032Z,97.49
2022-12-29T11:19:23.524Z,95.98
2022-12-29T11:21:54.110Z,96.83
2022-12-29T11:24:24.667Z,96.54
2022-12-29T11:26:55.243Z,97.62
2022-12-29T11:29:25.810Z,97.20
2022-12-29T11:31:56.567Z,96.82
2022-12-29T11:34:26.825Z,97.33
2022-12-29T11:36:57.233Z,98.98
2022-12-29T11:39:27.822Z,98.04
2022-12-29T11:41:58.368Z,97.74
2022-12-29T11:44:28.915Z,97.24
2022-12-29T11:46:59.504Z,96.12
2022-12-29T11:49:30.042Z,96.22
2022-12-29T11:52:00.646Z,97.55
2022-12-29T11:54:31.187Z,97.31
2022-12-29T11:57:01.750Z,98.21
2022-12-29T11:59:32.354Z,97.40
2022-12-29T12:02:03.039Z,98.58
2022-12-29T12:04:33.497Z,99.35
2022-12-29T12:07:04.027Z,97.87
2022-12-29T12:09:34.603Z,98.08
2022-12-29T12:12:05.341Z,100.00
2022-12-29T12:14:35.755Z,98.43
2022-12-29T12:17:06.358Z,99.76
2022-12-29T12:19:36.930Z,99.66
2022-12-29T12:22:07.520Z,98.73
2022-12-29T12:24:38.087Z,98.53
2022-12-29T12:27:08.779Z,98.75
2022-12-29T12:29:39.251Z,99.00
2022-12-29T12:32:09.828Z,99.65
2022-12-29T12:34:40.399Z,99.09
2022-12-29T12:37:10.967Z,99.44
2022-12-29T12:39:41.561Z,100.00
2022-12-29T12:42:12.127Z,99.99
2022-12-29T12:44:42.764Z,100.00
2022-12-29T12:47:13.322Z,100.00
2022-12-29T12:49:43.908Z,100.00
2022-12-29T12:52:14.578Z,100.00
2022-12-29T12:54:45.071Z,99.52
2022-12-29T12:57:15.678Z,100.00
2022-12-29T12:59:46.252Z,99.51
2022-12-29T13:02:17.198Z,98.66
2022-12-29T13:04:47.446Z,98.22
2022-12-29T13:07:18.044Z,98.36
2022-12-29T13:09:48.639Z,99.30
2022-12-29T13:12:19.328Z,99.89
2022-12-29T13:14:49.802Z,97.66
2022-12-29T13:17:20.552Z,97.59
2022-12-29T13:19:50.964Z,98.02
2022-12-29T13:22:21.548Z,98.14
2022-12-29T13:24:52.134Z,98.40
2022-12-29T13:27:22.821Z,96.79
2022-12-29T13:29:53.279Z,97.33
2022-12-29T13:32:23.896Z,94.90
2022-12-29T13:34:54.503Z,96.50
2022-12-29T13:37:27.041Z,95.92
2022-12-29T13:39:55.667Z,96.00
2022-12-29T13:42:26.213Z,96.11
2022-12-29T13:44:56.802Z,95.67
2022-12-29T13:47:27.408Z,96.23
2022-12-29T13:49:57.979Z,96.49
2022-12-29T13:52:28.641Z,95.80
2022-12-29T13:54:59.151Z,95.72
2022-12-29T13:57:29.784Z,96.90
2022-12-29T14:00:00.331Z,97.18
2022-12-29T14:02:31.023Z,95.93
2022-12-29T14:05:01.480Z,95.55
2022-12-29T14:07:32.124Z,94.86
2022-12-29T14:10:02.698Z,95.50
2022-12-29T14:12:33.390Z,95.52
2022-12-29T14:15:03.851Z,96.94
2022-12-29T14:17:34.455Z,95.66
2022-12-29T14:20:05.042Z,96.11
2022-12-29T14:22:35.622Z,95.55
2022-12-29T14:25:06.230Z,95.93
2022-12-29T14:27:36.857Z,95.54
2022-12-29T14:30:07.400Z,95.02
2022-12-29T14:32:37.734Z,95.50
2022-12-29T14:35:08.238Z,94.94
2022-12-29T14:37:38.848Z,94.44
2022-12-29T14:40:09.446Z,95.55
2022-12-29T14:42:40.028Z,95.11
2022-12-29T14:45:10.621Z,95.21
2022-12-29T14:47:41.223Z,94.94
2022-12-29T14:50:11.798Z,95.80
2022-12-29T14:52:42.401Z,95.46
2022-12-29T14:55:12.999Z,95.71
2022-12-29T14:57:43.610Z,95.57
2022-12-29T15:00:14.204Z,95.76
2022-12-29T15:02:44.977Z,96.57
2022-12-29T15:05:15.391Z,96.02
2022-12-29T15:07:46.002Z,95.98
2022-12-29T15:10:16.607Z,96.59
2022-12-29T15:12:47.201Z,95.70
2022-12-29T15:15:17.802Z,95.47
2022-12-29T15:17:48.433Z,96.01
2022-12-29T15:20:19.100Z,96.94
2022-12-29T15:22:49.629Z,96.38
2022-12-29T15:25:20.234Z,95.71
2022-12-29T15:27:50.548Z,94.76
2022-12-29T15:30:21.157Z,95.81
2022-12-29T15:32:51.852Z,96.88
2022-12-29T15:35:22.367Z,96.14
2022-12-29T15:37:52.704Z,95.08
2022-12-29T15:40:23.300Z,96.07
2022-12-29T15:42:53.974Z,95.76
2022-12-29T15:45:24.702Z,95.93
2022-12-29T15:47:55.231Z,95.17
2022-12-29T15:50:25.764Z,95.36
2022-12-29T15:52:56.370Z,96.23
2022-12-29T15:55:27.007Z,96.32
2022-12-29T15:57:57.656Z,95.85
2022-12-29T16:00:28.217Z,94.40
2022-12-29T16:02:58.976Z,95.94
2022-12-29T16:05:29.462Z,95.02
2022-12-29T16:08:00.183Z,95.64
2022-12-29T16:10:30.676Z,95.06
2022-12-29T16:13:01.292Z,95.13
2022-12-29T16:15:31.975Z,94.43
2022-12-29T16:18:02.527Z,94.81
2022-12-29T16:20:33.111Z,95.30
2022-12-29T16:23:03.717Z,95.72
2022-12-29T16:25:34.317Z,95.86
2022-12-29T16:28:04.920Z,95.58
2022-12-29T16:30:35.696Z,95.64
2022-12-29T16:33:06.150Z,95.02
2022-12-29T16:35:36.725Z,96.09
2022-12-29T16:38:07.336Z,94.93
2022-12-29T16:40:37.991Z,94.79
2022-12-29T16:43:08.557Z,94.17
2022-12-29T16:45:39.347Z,95.01
2022-12-29T16:48:09.809Z,95.86
2022-12-29T16:50:40.363Z,95.50
2022-12-29T16:53:11.030Z,96.43
2022-12-29T16:55:41.634Z,98.15
2022-12-29T16:58:12.218Z,98.39
2022-12-29T17:00:42.832Z,98.55
2022-12-29T17:03:13.610Z,98.31
2022-12-29T17:05:44.076Z,97.28
2022-12-29T17:08:14.741Z,98.26
2022-12-29T17:10:45.367Z,99.08
2022-12-29T17:13:15.957Z,97.83
2022-12-29T17:15:46.644Z,96.97
2022-12-29T17:18:17.215Z,98.16
2022-12-29T17:20:47.810Z,97.36
2022-12-29T17:23:24.466Z,98.09
2022-12-29T17:25:49.217Z,98.43
2022-12-29T17:28:19.666Z,98.93
2022-12-29T17:30:50.312Z,98.61
2022-12-29T17:33:20.967Z,98.80
2022-12-29T17:35:55.503Z,99.41
2022-12-29T17:38:22.138Z,99.92
2022-12-29T17:40:52.843Z,98.66
2022-12-29T17:43:23.389Z,99.25
2022-12-29T17:45:54.137Z,99.93
2022-12-29T17:48:24.625Z,98.58
2022-12-29T17:50:55.209Z,100.00
2022-12-29T17:53:25.849Z,100.00
2022-12-29T17:55:56.656Z,100.00
2022-12-29T17:58:27.155Z,99.18
2022-12-29T18:00:57.768Z,100.00
2022-12-29T18:03:28.635Z,99.16
2022-12-29T18:05:58.971Z,100.00
2022-12-29T18:08:29.649Z,100.00
2022-12-29T18:11:00.219Z,98.39
2022-12-29T18:13:43.684Z,99.34
2022-12-29T18:16:01.180Z,99.54
2022-12-29T18:18:31.817Z,98.70
2022-12-29T18:21:02.371Z,99.16
2022-12-29T18:23:33.294Z,99.02
2022-12-29T18:26:03.677Z,98.81
2022-12-29T18:28:34.272Z,98.55
2022-12-29T18:31:04.934Z,99.13
2022-12-29T18:33:35.652Z,97.39
2022-12-29T18:36:06.253Z,99.58
2022-12-29T18:38:36.814Z,99.26
2022-12-29T18:41:07.498Z,99.03
2022-12-29T18:43:38.064Z,97.39
2022-12-29T18:46:08.722Z,97.53
2022-12-29T18:48:39.325Z,96.84
2022-12-29T18:51:09.956Z,96.61
2022-12-29T18:53:40.607Z,96.46
2022-12-29T18:56:11.219Z,97.28
2022-12-29T18:58:41.887Z,97.29
2022-12-29T19:01:12.573Z,96.40
2022-12-29T19:03:43.214Z,97.11
2022-12-29T19:06:13.772Z,96.83
2022-12-29T19:08:44.445Z,97.90
2022-12-29T19:11:15.101Z,97.00
2022-12-29T19:13:45.786Z,96.50
2022-12-29T19:16:16.434Z,96.25
2022-12-29T19:18:53.627Z,95.81
2022-12-29T19:21:17.630Z,95.60
2022-12-29T19:23:48.286Z,96.58
2022-12-29T19:26:18.266Z,97.67
2022-12-29T19:28:48.428Z,95.36
2022-12-29T19:31:19.093Z,93.47
2022-12-29T19:33:49.720Z,94.34
2022-12-29T19:36:20.342Z,94.08
2022-12-29T19:38:51.107Z,93.57
2022-12-29T19:41:21.647Z,94.87
2022-12-29T19:43:52.306Z,94.60
2022-12-29T19:46:23.047Z,94.06
2022-12-29T19:48:53.603Z,94.42
2022-12-29T19:51:24.250Z,94.77
2022-12-29T19:53:54.905Z,94.98
2022-12-29T19:56:25.549Z,94.03
2022-12-29T19:58:56.195Z,95.13
2022-12-29T20:01:26.959Z,95.09
2022-12-29T20:03:57.482Z,93.93
2022-12-29T20:06:27.864Z,95.04
2022-12-29T20:08:58.523Z,94.87
2022-12-29T20:11:29.186Z,94.54
2022-12-29T20:13:59.842Z,94.02
2022-12-29T20:16:30.549Z,93.93
2022-12-29T20:19:01.176Z,94.22
2022-12-29T20:21:31.794Z,93.26
2022-12-29T20:24:02.453Z,93.26
2022-12-29T20:26:33.096Z,93.81
2022-12-29T20:29:03.787Z,93.82
2022-12-29T20:31:34.500Z,92.65
2022-12-29T20:34:05.065Z,94.09
2022-12-29T20:36:35.413Z,93.57
2022-12-29T20:39:06.065Z,93.12
2022-12-29T20:41:36.711Z,93.16
2022-12-29T20:44:07.377Z,93.06
2022-12-29T20:46:43.636Z,93.63
2022-12-29T20:49:08.381Z,93.68
2022-12-29T20:52:04.912Z,92.47
2022-12-29T20:54:09.664Z,93.70
2022-12-29T20:56:40.414Z,94.67
2022-12-29T20:59:27.506Z,93.79
2022-12-29T21:01:41.745Z,93.48
2022-12-29T21:04:12.275Z,93.49
2022-12-29T21:06:42.557Z,93.56
2022-12-29T21:09:13.217Z,93.44
2022-12-29T21:11:43.869Z,93.20
2022-12-29T21:14:14.501Z,92.69
2022-12-29T21:16:45.226Z,94.05
2022-12-29T21:19:15.764Z,93.80
2022-12-29T21:21:46.359Z,93.15
2022-12-29T21:24:16.990Z,93.89
2022-12-29T21:26:47.612Z,92.23
2022-12-29T21:29:18.252Z,92.53
2022-12-29T21:31:48.887Z,93.34
2022-12-29T21:34:19.516Z,93.21
2022-12-29T21:36:50.145Z,92.84
2022-12-29T21:39:20.788Z,94.57
2022-12-29T21:41:51.406Z,94.12
2022-12-29T21:44:22.055Z,93.35
2022-12-29T21:46:52.683Z,93.70
2022-12-29T21:49:23.360Z,93.92
2022-12-29T21:51:53.725Z,93.56
2022-12-29T21:54:24.416Z,93.58
2022-12-29T21:56:54.936Z,93.86
2022-12-29T21:59:25.684Z,94.07
2022-12-29T22:01:56.373Z,93.27
2022-12-29T22:04:26.590Z,95.00
2022-12-29T22:06:57.219Z,94.68
2022-12-29T22:09:27.926Z,94.22
2022-12-29T22:11:58.146Z,93.00
2022-12-29T22:14:28.811Z,93.71
2022-12-29T22:16:59.453Z,93.73
2022-12-29T22:19:30.263Z,94.14
2022-12-29T22:22:00.750Z,93.09
2022-12-29T22:24:31.425Z,93.82
2022-12-29T22:27:01.705Z,94.46
2022-12-29T22:29:32.446Z,94.80
2022-12-29T22:32:03.094Z,94.62
2022-12-29T22:34:33.780Z,94.92
2022-12-29T22:37:04.397Z,94.59
2022-12-29T22:39:35.062Z,94.20
2022-12-29T22:42:05.714Z,93.90
2022-12-29T22:44:36.390Z,94.38
2022-12-29T22:47:06.404Z,94.71
2022-12-29T22:49:37.110Z,95.44
2022-12-29T22:52:07.737Z,94.58
2022-12-29T22:54:38.441Z,95.37
2022-12-29T22:57:09.196Z,95.44
2022-12-29T22:59:39.795Z,94.55
2022-12-29T23:02:10.296Z,95.31
2022-12-29T23:05:02.967Z,94.56
2022-12-29T23:07:11.534Z,95.02
2022-12-29T23:09:42.217Z,94.91
2022-12-29T23:12:12.895Z,95.15
2022-12-29T23:14:43.606Z,94.39
2022-12-29T23:17:14.279Z,94.68
2022-12-29T23:19:44.983Z,94.70
2022-12-29T23:22:15.633Z,95.37
2022-12-29T23:24:46.335Z,95.15
2022-12-29T23:27:16.994Z,94.67
2022-12-29T23:29:47.723Z,95.64
2022-12-29T23:32:18.372Z,94.58
2022-12-29T23:34:49.044Z,95.33
2022-12-29T23:37:19.700Z,94.71
2022-12-29T23:39:50.395Z,95.12
2022-12-29T23:42:21.059Z,95.12
2022-12-29T23:44:51.826Z,95.97
2022-12-29T23:47:22.416Z,95.18
2022-12-29T23:49:53.099Z,94.77
2022-12-29T23:52:23.794Z,94.29
2022-12-29T23:54:54.559Z,95.18
2022-12-29T23:57:25.110Z,94.23
2022-12-29T23:59:55.507Z,94.11
